Time;durP1;ratioP1;P1;durP2;ratioP2;P2;SDS_P1;SDS_P2;PMS_P1;PMS_P2;Temp;Humidity;BMP_temperature;BMP_pressure;BME280_temperature;BME280_humidity;BME280_pressure;Samples;Min_cycle;Max_cycle;Signal;HPM_P1;HPM_P2
2023/10/22 00:00:17;;;;;;;6.30;1.30;;;;;;;;;;5039183;28;20256;-73
2023/10/22 00:02:42;;;;;;;2.20;1.17;;;;;;;;;;5057054;28;20263;-73
2023/10/22 00:05:08;;;;;;;5.28;1.70;;;;;;;;;;5057285;28;20469;-74
2023/10/22 00:07:33;;;;;;;2.08;1.30;;;;;;;;;;5056992;28;20451;-74
2023/10/22 00:09:59;;;;;;;4.57;1.58;;;;;;;;;;5039007;28;20013;-73
2023/10/22 00:12:24;;;;;;;2.47;1.50;;;;;;;;;;5039020;28;20523;-74
2023/10/22 00:14:49;;;;;;;4.40;1.73;;;;;;;;;;5056935;28;20020;-74
2023/10/22 00:17:15;;;;;;;6.35;1.60;;;;;;;;;;5057027;28;20025;-74
2023/10/22 00:19:40;;;;;;;4.75;1.70;;;;;;;;;;5056818;28;20013;-74
2023/10/22 00:22:05;;;;;;;4.93;1.65;;;;;;;;;;5056937;28;20026;-73
2023/10/22 00:24:31;;;;;;;3.60;1.60;;;;;;;;;;5056713;28;20021;-74
2023/10/22 00:26:57;;;;;;;2.97;1.80;;;;;;;;;;5056752;28;20753;-74
2023/10/22 00:29:23;;;;;;;2.90;1.98;;;;;;;;;;5056589;28;20072;-73
2023/10/22 00:31:48;;;;;;;4.53;2.00;;;;;;;;;;5056688;28;20041;-74
2023/10/22 00:34:13;;;;;;;5.10;1.87;;;;;;;;;;5056629;28;20074;-74
2023/10/22 00:36:41;;;;;;;4.43;2.00;;;;;;;;;;5056496;28;20395;-74
2023/10/22 00:39:06;;;;;;;4.53;1.60;;;;;;;;;;5056448;28;20052;-74
2023/10/22 00:41:31;;;;;;;3.78;1.83;;;;;;;;;;5038576;28;20057;-73
2023/10/22 00:43:56;;;;;;;4.33;1.70;;;;;;;;;;5056407;28;20029;-72
2023/10/22 00:46:23;;;;;;;10.90;2.13;;;;;;;;;;5056343;28;20691;-73
2023/10/22 00:48:49;;;;;;;5.28;2.00;;;;;;;;;;5038097;28;20386;-74
2023/10/22 00:51:14;;;;;;;7.00;2.03;;;;;;;;;;5056222;28;20048;-73
2023/10/22 00:53:41;;;;;;;3.95;1.77;;;;;;;;;;5056267;28;20036;-74
2023/10/22 00:56:06;;;;;;;5.95;2.00;;;;;;;;;;5038266;28;20070;-73
2023/10/22 00:58:33;;;;;;;7.23;2.10;;;;;;;;;;5056169;28;20020;-73
2023/10/22 01:00:58;;;;;;;5.95;1.90;;;;;;;;;;5056082;28;20103;-73
2023/10/22 01:03:23;;;;;;;6.20;1.88;;;;;;;;;;5055936;28;20486;-73
2023/10/22 01:05:48;;;;;;;5.30;1.77;;;;;;;;;;5055228;28;20352;-75
2023/10/22 01:08:14;;;;;;;8.47;2.43;;;;;;;;;;5055793;28;20392;-73
2023/10/22 01:10:39;;;;;;;7.88;2.00;;;;;;;;;;5055772;28;20278;-74
2023/10/22 01:13:05;;;;;;;6.38;1.88;;;;;;;;;;5034471;28;20037;-73
2023/10/22 01:15:31;;;;;;;4.72;1.73;;;;;;;;;;5034489;28;20044;-73
2023/10/22 01:17:56;;;;;;;5.63;2.17;;;;;;;;;;5035898;28;20021;-73
2023/10/22 01:20:21;;;;;;;5.57;2.00;;;;;;;;;;5035713;28;20780;-71
2023/10/22 01:22:46;;;;;;;6.95;2.03;;;;;;;;;;5035717;28;20077;-73
2023/10/22 01:25:12;;;;;;;5.40;2.10;;;;;;;;;;5035734;28;20017;-72
2023/10/22 01:27:37;;;;;;;3.70;1.67;;;;;;;;;;5035723;28;20021;-73
2023/10/22 01:30:03;;;;;;;3.92;1.80;;;;;;;;;;5035619;28;20374;-73
2023/10/22 01:32:31;;;;;;;6.03;2.33;;;;;;;;;;5035531;28;20013;-73
2023/10/22 01:34:59;;;;;;;4.95;1.85;;;;;;;;;;5035579;28;20013;-73
2023/10/22 01:37:25;;;;;;;6.03;1.80;;;;;;;;;;5035463;28;20024;-74
2023/10/22 01:39:50;;;;;;;3.80;1.60;;;;;;;;;;5034326;28;20025;-73
2023/10/22 01:42:16;;;;;;;5.65;1.80;;;;;;;;;;5035310;28;20096;-73
2023/10/22 01:44:41;;;;;;;2.53;1.55;;;;;;;;;;5035322;28;20132;-73
2023/10/22 01:47:06;;;;;;;4.87;1.63;;;;;;;;;;5035473;28;20141;-74
2023/10/22 01:49:32;;;;;;;10.33;1.83;;;;;;;;;;5035118;28;20280;-75
2023/10/22 01:51:57;;;;;;;3.45;1.70;;;;;;;;;;5035261;28;20260;-74
2023/10/22 01:54:22;;;;;;;4.88;1.50;;;;;;;;;;5035161;28;20476;-73
2023/10/22 01:56:47;;;;;;;3.23;1.70;;;;;;;;;;5035235;28;20052;-74
2023/10/22 01:59:12;;;;;;;2.13;1.60;;;;;;;;;;5033765;28;20639;-74
2023/10/22 02:01:39;;;;;;;3.25;1.65;;;;;;;;;;5035126;28;20275;-73
2023/10/22 02:04:04;;;;;;;5.07;1.88;;;;;;;;;;5033844;28;20033;-74
2023/10/22 02:06:29;;;;;;;3.40;1.65;;;;;;;;;;5033707;28;20397;-73
2023/10/22 02:08:54;;;;;;;6.03;1.88;;;;;;;;;;5034713;28;20026;-74
2023/10/22 02:11:20;;;;;;;2.93;1.50;;;;;;;;;;5037529;28;20047;-73
2023/10/22 02:13:45;;;;;;;3.60;1.75;;;;;;;;;;5054604;28;20013;-74
2023/10/22 02:16:10;;;;;;;2.23;1.50;;;;;;;;;;5054661;28;20028;-73
2023/10/22 02:18:35;;;;;;;1.37;1.27;;;;;;;;;;5035623;28;20048;-73
2023/10/22 02:21:02;;;;;;;2.20;1.40;;;;;;;;;;5054417;28;20013;-72
2023/10/22 02:23:28;;;;;;;4.70;1.50;;;;;;;;;;5054637;28;20263;-74
2023/10/22 02:25:53;;;;;;;2.30;1.13;;;;;;;;;;5054675;28;20049;-74
2023/10/22 02:28:18;;;;;;;3.97;1.40;;;;;;;;;;5054328;28;20401;-73
2023/10/22 02:30:50;;;;;;;1.40;1.03;;;;;;;;;;5054432;28;20256;-73
2023/10/22 02:33:15;;;;;;;2.38;1.08;;;;;;;;;;5054320;28;20669;-73
2023/10/22 02:35:41;;;;;;;1.48;1.00;;;;;;;;;;5054199;28;20017;-74
2023/10/22 02:38:07;;;;;;;3.13;1.05;;;;;;;;;;5054281;28;20075;-73
2023/10/22 02:40:35;;;;;;;1.40;1.25;;;;;;;;;;5054097;28;20049;-73
2023/10/22 02:43:01;;;;;;;2.25;1.35;;;;;;;;;;5054158;28;20020;-73
2023/10/22 02:45:26;;;;;;;1.77;1.35;;;;;;;;;;5054336;28;20448;-73
2023/10/22 02:47:51;;;;;;;3.23;1.33;;;;;;;;;;5054078;28;20025;-73
2023/10/22 02:50:17;;;;;;;2.03;1.30;;;;;;;;;;5053827;28;20754;-73
2023/10/22 02:52:42;;;;;;;2.28;1.20;;;;;;;;;;5053925;28;20025;-73
2023/10/22 02:55:08;;;;;;;4.47;1.20;;;;;;;;;;5054172;28;20068;-73
2023/10/22 02:57:33;;;;;;;2.08;1.40;;;;;;;;;;5036058;28;20082;-73
2023/10/22 02:59:58;;;;;;;2.67;1.40;;;;;;;;;;5035936;28;20025;-73
2023/10/22 03:02:23;;;;;;;3.05;1.40;;;;;;;;;;5053945;28;20031;-73
2023/10/22 03:04:49;;;;;;;4.83;1.60;;;;;;;;;;5053869;28;20095;-73
2023/10/22 03:07:14;;;;;;;3.05;0.90;;;;;;;;;;5053775;28;20317;-73
2023/10/22 03:09:40;;;;;;;3.77;1.00;;;;;;;;;;5053588;28;20021;-73
2023/10/22 03:12:05;;;;;;;5.22;0.93;;;;;;;;;;5053717;28;20307;-73
2023/10/22 03:14:31;;;;;;;4.45;0.88;;;;;;;;;;5053771;28;20469;-72
2023/10/22 03:16:57;;;;;;;3.17;0.90;;;;;;;;;;5053501;28;20060;-73
2023/10/22 03:19:22;;;;;;;4.00;0.60;;;;;;;;;;5053472;28;20267;-72
2023/10/22 03:21:47;;;;;;;3.60;0.88;;;;;;;;;;5053603;28;20050;-73
2023/10/22 03:24:15;;;;;;;4.68;0.85;;;;;;;;;;5053452;28;20071;-72
2023/10/22 03:26:40;;;;;;;5.38;1.00;;;;;;;;;;5053614;28;20017;-72
2023/10/22 03:29:06;;;;;;;8.07;1.10;;;;;;;;;;5052882;28;20123;-73
2023/10/22 03:31:31;;;;;;;7.07;1.00;;;;;;;;;;5035517;28;20511;-73
2023/10/22 03:33:57;;;;;;;4.53;1.20;;;;;;;;;;5053399;28;20078;-72
2023/10/22 03:36:22;;;;;;;6.37;1.30;;;;;;;;;;5035419;28;20702;-73
2023/10/22 03:38:47;;;;;;;3.77;1.37;;;;;;;;;;5053307;28;20262;-74
2023/10/22 03:41:12;;;;;;;3.70;1.40;;;;;;;;;;5053270;28;20028;-73
2023/10/22 03:43:37;;;;;;;4.07;1.90;;;;;;;;;;5053315;28;20274;-73
2023/10/22 03:46:02;;;;;;;5.10;2.13;;;;;;;;;;5053119;28;20658;-73
2023/10/22 03:48:28;;;;;;;4.78;2.13;;;;;;;;;;5053041;28;20321;-72
2023/10/22 03:50:53;;;;;;;8.18;2.38;;;;;;;;;;5035173;28;20396;-73
2023/10/22 03:53:19;;;;;;;11.90;2.47;;;;;;;;;;5053035;28;20021;-73
2023/10/22 03:55:44;;;;;;;9.70;2.67;;;;;;;;;;5052978;28;20017;-73
2023/10/22 03:58:09;;;;;;;10.32;2.58;;;;;;;;;;5052981;28;20096;-73
2023/10/22 04:00:34;;;;;;;9.10;3.03;;;;;;;;;;5052773;28;20025;-73
2023/10/22 04:03:00;;;;;;;7.65;2.88;;;;;;;;;;5035542;28;20024;-73
2023/10/22 04:05:25;;;;;;;9.23;3.00;;;;;;;;;;5053316;28;20017;-74
2023/10/22 04:07:51;;;;;;;10.37;3.17;;;;;;;;;;5053028;28;20356;-73
2023/10/22 04:10:16;;;;;;;8.10;3.20;;;;;;;;;;5053014;28;20280;-73
2023/10/22 04:12:41;;;;;;;7.67;3.00;;;;;;;;;;5052843;28;20041;-73
2023/10/22 04:15:07;;;;;;;6.53;3.03;;;;;;;;;;5053146;28;20352;-74
2023/10/22 04:17:32;;;;;;;7.80;2.67;;;;;;;;;;5052849;28;20013;-72
2023/10/22 04:19:57;;;;;;;8.85;2.80;;;;;;;;;;5053030;28;20056;-73
2023/10/22 04:22:22;;;;;;;9.07;2.73;;;;;;;;;;5052967;28;20025;-73
2023/10/22 04:24:47;;;;;;;8.50;2.60;;;;;;;;;;5052898;28;20622;-73
2023/10/22 04:27:13;;;;;;;12.93;3.17;;;;;;;;;;5052822;28;20440;-72
2023/10/22 04:29:38;;;;;;;9.15;3.20;;;;;;;;;;5052928;28;20025;-73
2023/10/22 04:32:03;;;;;;;8.27;2.92;;;;;;;;;;5052540;28;20071;-72
2023/10/22 04:34:28;;;;;;;7.72;2.45;;;;;;;;;;5052717;28;20024;-72
2023/10/22 04:36:54;;;;;;;8.87;2.80;;;;;;;;;;5052757;28;20013;-73
2023/10/22 04:39:19;;;;;;;8.88;2.50;;;;;;;;;;5052676;28;20096;-73
2023/10/22 04:41:44;;;;;;;5.77;2.10;;;;;;;;;;5054761;28;20024;-73
2023/10/22 04:44:09;;;;;;;10.13;2.20;;;;;;;;;;5056376;28;20267;-72
2023/10/22 04:46:35;;;;;;;5.37;2.03;;;;;;;;;;5056415;28;20074;-73
2023/10/22 04:49:00;;;;;;;4.80;1.93;;;;;;;;;;5056188;28;20301;-73
2023/10/22 04:51:25;;;;;;;6.50;1.90;;;;;;;;;;5056174;28;20263;-73
2023/10/22 04:53:50;;;;;;;5.68;1.70;;;;;;;;;;5056310;28;20243;-73
2023/10/22 04:56:15;;;;;;;7.82;1.70;;;;;;;;;;5056122;28;20017;-73
2023/10/22 04:58:41;;;;;;;4.68;1.70;;;;;;;;;;5056114;28;20024;-73
2023/10/22 05:01:06;;;;;;;7.27;2.40;;;;;;;;;;5056151;28;20021;-73
2023/10/22 05:03:32;;;;;;;9.98;3.85;;;;;;;;;;5056197;28;20013;-73
2023/10/22 05:06:02;;;;;;;12.87;3.60;;;;;;;;;;5055906;28;20017;-73
2023/10/22 05:08:27;;;;;;;8.10;2.65;;;;;;;;;;5055853;28;20275;-74
2023/10/22 05:10:52;;;;;;;7.57;2.30;;;;;;;;;;5055834;28;20472;-73
2023/10/22 05:13:17;;;;;;;8.97;2.00;;;;;;;;;;5055744;28;20378;-74
2023/10/22 05:15:49;;;;;;;8.13;2.20;;;;;;;;;;5055736;28;20649;-73
2023/10/22 05:18:14;;;;;;;10.07;1.90;;;;;;;;;;5055670;28;20017;-73
2023/10/22 05:20:39;;;;;;;8.13;2.23;;;;;;;;;;5055602;28;20066;-73
2023/10/22 05:23:05;;;;;;;5.83;1.90;;;;;;;;;;5055726;28;20247;-74
2023/10/22 05:25:30;;;;;;;8.52;2.00;;;;;;;;;;5055599;28;20298;-73
2023/10/22 05:27:55;;;;;;;5.80;1.80;;;;;;;;;;5055543;28;20013;-74
2023/10/22 05:30:20;;;;;;;5.47;2.50;;;;;;;;;;5055460;28;20028;-73
2023/10/22 05:32:45;;;;;;;7.05;2.35;;;;;;;;;;5037545;28;20777;-73
2023/10/22 05:35:11;;;;;;;9.43;2.30;;;;;;;;;;5055665;28;20100;-72
2023/10/22 05:37:36;;;;;;;7.03;2.20;;;;;;;;;;5055552;28;20267;-73
2023/10/22 05:40:01;;;;;;;10.93;2.60;;;;;;;;;;5055665;28;20278;-72
2023/10/22 05:42:26;;;;;;;5.70;2.30;;;;;;;;;;5055349;28;20260;-73
2023/10/22 05:44:51;;;;;;;5.65;2.40;;;;;;;;;;5037204;28;20279;-73
2023/10/22 05:47:17;;;;;;;8.03;2.27;;;;;;;;;;5055301;28;20060;-72
2023/10/22 05:49:42;;;;;;;8.00;3.00;;;;;;;;;;5037377;28;20711;-72
2023/10/22 05:52:07;;;;;;;11.10;2.58;;;;;;;;;;5055124;28;20263;-73
2023/10/22 05:54:33;;;;;;;7.40;3.08;;;;;;;;;;5055329;28;20017;-74
2023/10/22 05:56:58;;;;;;;9.90;3.00;;;;;;;;;;5037169;28;20024;-72
2023/10/22 05:59:23;;;;;;;8.95;3.10;;;;;;;;;;5055114;28;20345;-73
2023/10/22 06:01:49;;;;;;;13.68;3.22;;;;;;;;;;5055005;28;20028;-73
2023/10/22 06:04:14;;;;;;;7.88;2.70;;;;;;;;;;5054980;28;20121;-73
2023/10/22 06:06:39;;;;;;;5.88;2.70;;;;;;;;;;5054908;28;20558;-74
2023/10/22 06:09:04;;;;;;;8.10;2.73;;;;;;;;;;5054751;28;20020;-72
2023/10/22 06:11:29;;;;;;;5.87;2.70;;;;;;;;;;5036509;28;20322;-73
2023/10/22 06:13:56;;;;;;;10.18;2.70;;;;;;;;;;5054770;28;20339;-73
2023/10/22 06:16:22;;;;;;;9.27;2.78;;;;;;;;;;5054474;28;20028;-73
2023/10/22 06:18:48;;;;;;;6.53;2.67;;;;;;;;;;5054683;28;20032;-73
2023/10/22 06:21:13;;;;;;;10.32;2.90;;;;;;;;;;5054761;28;20024;-73
2023/10/22 06:23:39;;;;;;;6.45;2.47;;;;;;;;;;5054812;28;20025;-73
2023/10/22 06:26:04;;;;;;;10.95;3.08;;;;;;;;;;5054439;28;20049;-73
2023/10/22 06:28:30;;;;;;;7.63;2.85;;;;;;;;;;5054299;28;20028;-73
2023/10/22 06:31:08;;;;;;;8.80;2.65;;;;;;;;;;5054512;28;20017;-73
2023/10/22 06:33:34;;;;;;;6.50;2.67;;;;;;;;;;5054479;28;20024;-73
2023/10/22 06:35:59;;;;;;;6.43;2.50;;;;;;;;;;5054611;28;20017;-73
2023/10/22 06:38:24;;;;;;;3.22;2.30;;;;;;;;;;5054270;28;20484;-73
2023/10/22 06:40:49;;;;;;;12.00;2.80;;;;;;;;;;5054495;28;20136;-73
2023/10/22 06:43:15;;;;;;;6.90;2.47;;;;;;;;;;5054242;28;20731;-73
2023/10/22 06:45:40;;;;;;;7.00;2.27;;;;;;;;;;5054228;28;20321;-72
2023/10/22 06:48:05;;;;;;;3.77;2.30;;;;;;;;;;5054189;28;20777;-72
2023/10/22 06:50:30;;;;;;;8.60;2.60;;;;;;;;;;5036427;28;20289;-73
2023/10/22 06:52:55;;;;;;;7.93;2.67;;;;;;;;;;5036503;28;20009;-74
2023/10/22 06:55:21;;;;;;;8.82;2.72;;;;;;;;;;5054506;28;20342;-74
2023/10/22 06:57:46;;;;;;;5.33;2.63;;;;;;;;;;5054850;28;20052;-73
2023/10/22 07:00:12;;;;;;;8.70;2.93;;;;;;;;;;5054841;28;20830;-74
2023/10/22 07:02:38;;;;;;;8.75;3.08;;;;;;;;;;5054992;28;20743;-73
2023/10/22 07:05:03;;;;;;;6.47;2.80;;;;;;;;;;5055005;28;20024;-73
2023/10/22 07:07:28;;;;;;;14.25;3.92;;;;;;;;;;5055077;28;20719;-74
2023/10/22 07:09:53;;;;;;;8.55;3.17;;;;;;;;;;5068289;28;20013;-73
2023/10/22 07:12:19;;;;;;;7.67;3.10;;;;;;;;;;5075136;28;20037;-72
2023/10/22 07:14:45;;;;;;;7.80;3.30;;;;;;;;;;5059425;28;20295;-73
2023/10/22 07:17:10;;;;;;;7.80;3.40;;;;;;;;;;5075613;28;20032;-73
2023/10/22 07:19:36;;;;;;;8.18;3.83;;;;;;;;;;5059474;28;20267;-73
2023/10/22 07:22:01;;;;;;;6.03;3.28;;;;;;;;;;5076791;28;20023;-73
2023/10/22 07:24:26;;;;;;;6.50;3.28;;;;;;;;;;5077290;28;20072;-72
2023/10/22 07:26:51;;;;;;;9.30;3.30;;;;;;;;;;5077126;28;20021;-73
2023/10/22 07:29:16;;;;;;;8.77;3.20;;;;;;;;;;5077577;28;20033;-72
2023/10/22 07:31:43;;;;;;;9.13;3.30;;;;;;;;;;5077413;28;20247;-73
2023/10/22 07:34:09;;;;;;;7.40;3.40;;;;;;;;;;5077696;28;20279;-73
2023/10/22 07:36:34;;;;;;;10.52;3.58;;;;;;;;;;5077977;28;20045;-73
2023/10/22 07:38:59;;;;;;;11.60;3.37;;;;;;;;;;5060661;28;20079;-73
2023/10/22 07:41:25;;;;;;;8.10;3.30;;;;;;;;;;5077813;28;20013;-73
2023/10/22 07:43:50;;;;;;;6.25;3.08;;;;;;;;;;5077294;28;20047;-74
2023/10/22 07:46:16;;;;;;;6.20;2.85;;;;;;;;;;5077777;28;20078;-73
2023/10/22 07:48:42;;;;;;;7.78;2.80;;;;;;;;;;5077477;28;20040;-72
2023/10/22 07:51:17;;;;;;;6.00;2.55;;;;;;;;;;5051742;28;20013;-73
2023/10/22 07:53:43;;;;;;;5.30;2.55;;;;;;;;;;5041035;28;20009;-74
2023/10/22 07:56:09;;;;;;;5.43;2.30;;;;;;;;;;5058112;28;20052;-74
2023/10/22 07:58:35;;;;;;;6.25;2.50;;;;;;;;;;5039732;28;20028;-73
2023/10/22 08:01:01;;;;;;;5.35;2.40;;;;;;;;;;5056532;28;20024;-72
2023/10/22 08:03:29;;;;;;;6.00;2.53;;;;;;;;;;5056746;28;20102;-73
2023/10/22 08:05:54;;;;;;;7.13;2.40;;;;;;;;;;5038156;28;20487;-74
2023/10/22 08:08:20;;;;;;;7.68;2.80;;;;;;;;;;5054803;28;20013;-74
2023/10/22 08:10:45;;;;;;;8.53;2.97;;;;;;;;;;5054270;28;20041;-74
2023/10/22 08:13:10;;;;;;;9.13;3.03;;;;;;;;;;5036147;28;20041;-74
2023/10/22 08:15:35;;;;;;;8.53;3.10;;;;;;;;;;5054422;28;20014;-74
2023/10/22 08:18:00;;;;;;;10.37;3.07;;;;;;;;;;5057799;28;20097;-74
2023/10/22 08:20:25;;;;;;;9.57;3.03;;;;;;;;;;5057667;28;20016;-74
2023/10/22 08:22:50;;;;;;;9.73;3.20;;;;;;;;;;5057137;28;20424;-74
2023/10/22 08:25:16;;;;;;;8.77;3.20;;;;;;;;;;5057369;28;20079;-74
2023/10/22 08:27:41;;;;;;;8.80;2.70;;;;;;;;;;5056980;28;20017;-74
2023/10/22 08:30:06;;;;;;;12.93;3.10;;;;;;;;;;5056850;28;20284;-74
2023/10/22 08:32:34;;;;;;;8.07;2.70;;;;;;;;;;5056673;28;20383;-74
2023/10/22 08:35:00;;;;;;;7.63;2.80;;;;;;;;;;5056893;28;20013;-73
2023/10/22 08:37:25;;;;;;;8.07;2.70;;;;;;;;;;5056493;28;20487;-73
2023/10/22 08:39:50;;;;;;;7.50;2.70;;;;;;;;;;5056481;28;20508;-73
2023/10/22 08:42:19;;;;;;;8.15;2.75;;;;;;;;;;5056855;28;20017;-74
2023/10/22 08:44:45;;;;;;;6.50;2.90;;;;;;;;;;5056715;28;20075;-73
2023/10/22 08:47:10;;;;;;;7.60;2.83;;;;;;;;;;5056373;28;20024;-74
2023/10/22 08:49:38;;;;;;;9.90;2.40;;;;;;;;;;5056337;28;20016;-73
2023/10/22 08:52:03;;;;;;;5.82;2.17;;;;;;;;;;5038631;28;20009;-74
2023/10/22 08:54:29;;;;;;;5.60;2.47;;;;;;;;;;5056311;28;20074;-73
2023/10/22 08:56:54;;;;;;;9.20;2.20;;;;;;;;;;5056256;28;20017;-73
2023/10/22 08:59:19;;;;;;;5.97;2.33;;;;;;;;;;5056170;28;20013;-73
2023/10/22 09:01:46;;;;;;;8.18;2.50;;;;;;;;;;5056201;28;20056;-74
2023/10/22 09:04:11;;;;;;;7.18;1.92;;;;;;;;;;5056051;28;20013;-74
2023/10/22 09:06:36;;;;;;;6.20;1.70;;;;;;;;;;5056228;28;20029;-74
2023/10/22 09:09:03;;;;;;;10.67;2.13;;;;;;;;;;5055968;28;20027;-74
2023/10/22 09:11:28;;;;;;;6.07;2.17;;;;;;;;;;5055784;28;20037;-74
2023/10/22 09:13:53;;;;;;;6.03;2.10;;;;;;;;;;5056045;28;20020;-74
2023/10/22 09:16:28;;;;;;;5.40;2.33;;;;;;;;;;5055758;28;20468;-74
2023/10/22 09:18:53;;;;;;;6.32;2.00;;;;;;;;;;5055822;28;20017;-73
2023/10/22 09:21:19;;;;;;;7.78;2.25;;;;;;;;;;5055847;28;20017;-73
2023/10/22 09:24:01;;;;;;;6.95;2.17;;;;;;;;;;5055692;28;20020;-73
2023/10/22 09:26:39;;;;;;;3.63;2.07;;;;;;;;;;5055088;28;20443;-74
2023/10/22 09:29:07;;;;;;;5.55;2.20;;;;;;;;;;5055568;28;20036;-74
2023/10/22 09:31:32;;;;;;;9.45;2.05;;;;;;;;;;5055553;28;20023;-73
2023/10/22 09:33:58;;;;;;;5.43;1.90;;;;;;;;;;5055653;28;20472;-74
2023/10/22 09:36:25;;;;;;;4.73;1.80;;;;;;;;;;5055510;28;20616;-74
2023/10/22 09:38:50;;;;;;;4.78;1.80;;;;;;;;;;5054937;28;20013;-74
2023/10/22 09:41:30;;;;;;;6.00;2.20;;;;;;;;;;5055478;28;20029;-74
2023/10/22 09:43:57;;;;;;;5.32;1.77;;;;;;;;;;5055294;28;20020;-73
2023/10/22 09:46:24;;;;;;;4.95;2.15;;;;;;;;;;5055451;28;20017;-74
2023/10/22 09:48:50;;;;;;;8.77;2.10;;;;;;;;;;5055210;28;20468;-73
2023/10/22 09:51:16;;;;;;;7.72;2.28;;;;;;;;;;5055032;28;20028;-73
2023/10/22 09:53:50;;;;;;;7.18;2.08;;;;;;;;;;5055231;28;20020;-73
2023/10/22 09:56:17;;;;;;;5.93;2.33;;;;;;;;;;5055117;28;20024;-73
2023/10/22 09:58:43;;;;;;;4.40;1.88;;;;;;;;;;5054958;28;20519;-73
2023/10/22 10:01:10;;;;;;;10.80;2.00;;;;;;;;;;5055056;28;20052;-73
2023/10/22 10:03:36;;;;;;;6.85;1.90;;;;;;;;;;5054929;28;20025;-73
2023/10/22 10:06:03;;;;;;;5.50;1.95;;;;;;;;;;5037047;28;20025;-73
2023/10/22 10:08:28;;;;;;;4.93;1.80;;;;;;;;;;5054582;28;20025;-72
2023/10/22 10:10:53;;;;;;;4.28;1.75;;;;;;;;;;5054730;28;20036;-73
2023/10/22 10:13:19;;;;;;;3.95;1.73;;;;;;;;;;5054523;28;20373;-73
2023/10/22 10:15:57;;;;;;;6.53;2.00;;;;;;;;;;5054569;28;20078;-72
2023/10/22 10:18:22;;;;;;;6.53;2.10;;;;;;;;;;5054756;28;20070;-73
2023/10/22 10:20:47;;;;;;;7.03;2.33;;;;;;;;;;5054514;28;20104;-73
2023/10/22 10:23:19;;;;;;;9.20;2.22;;;;;;;;;;5036681;28;20024;-73
2023/10/22 10:25:44;;;;;;;6.75;1.90;;;;;;;;;;5054595;28;20025;-73
2023/10/22 10:28:09;;;;;;;9.17;2.27;;;;;;;;;;5054354;28;20623;-73
2023/10/22 10:30:35;;;;;;;6.55;2.03;;;;;;;;;;5054448;28;20024;-73
2023/10/22 10:33:00;;;;;;;6.38;1.70;;;;;;;;;;5054337;28;20013;-73
2023/10/22 10:35:27;;;;;;;9.95;2.08;;;;;;;;;;5054241;28;20024;-73
2023/10/22 10:38:11;;;;;;;4.93;1.80;;;;;;;;;;5053914;28;20025;-73
2023/10/22 10:40:40;;;;;;;5.30;1.73;;;;;;;;;;5053963;28;20048;-73
2023/10/22 10:43:05;;;;;;;5.72;2.00;;;;;;;;;;5054161;28;20028;-73
2023/10/22 10:45:30;;;;;;;7.37;2.03;;;;;;;;;;5054074;28;20025;-73
2023/10/22 10:47:55;;;;;;;5.03;2.00;;;;;;;;;;5053954;28;20032;-73
2023/10/22 10:50:21;;;;;;;5.37;1.83;;;;;;;;;;5054196;28;20329;-74
2023/10/22 10:52:46;;;;;;;8.10;1.98;;;;;;;;;;5053930;28;20281;-73
2023/10/22 10:55:14;;;;;;;4.20;1.60;;;;;;;;;;5053968;28;20051;-73
2023/10/22 10:57:41;;;;;;;4.90;1.63;;;;;;;;;;5054079;28;20325;-73
2023/10/22 11:00:09;;;;;;;4.10;1.60;;;;;;;;;;5054046;28;20139;-74
2023/10/22 11:02:41;;;;;;;6.38;1.95;;;;;;;;;;5053877;28;20013;-73
2023/10/22 11:05:07;;;;;;;3.20;1.20;;;;;;;;;;5053637;28;20066;-73
2023/10/22 11:07:32;;;;;;;4.18;1.50;;;;;;;;;;5053656;28;20108;-72
2023/10/22 11:09:57;;;;;;;2.90;1.20;;;;;;;;;;5053527;28;20029;-73
2023/10/22 11:12:24;;;;;;;2.37;1.10;;;;;;;;;;5053437;28;20315;-73
2023/10/22 11:14:54;;;;;;;2.95;1.17;;;;;;;;;;5053485;28;20260;-73
2023/10/22 11:17:19;;;;;;;3.22;1.25;;;;;;;;;;5053424;28;20021;-74
2023/10/22 11:19:49;;;;;;;6.90;1.30;;;;;;;;;;5035720;28;20199;-73
2023/10/22 11:22:15;;;;;;;4.35;1.45;;;;;;;;;;5035565;28;20131;-73
2023/10/22 11:24:40;;;;;;;2.13;1.15;;;;;;;;;;5053533;28;20028;-73
2023/10/22 11:27:06;;;;;;;4.50;1.30;;;;;;;;;;5035592;28;20025;-74
2023/10/22 11:29:45;;;;;;;5.88;1.38;;;;;;;;;;5053289;28;20469;-73
2023/10/22 11:32:14;;;;;;;4.15;1.27;;;;;;;;;;5053357;28;20021;-74
2023/10/22 11:34:49;;;;;;;3.92;1.23;;;;;;;;;;5053308;28;20048;-74
2023/10/22 11:37:14;;;;;;;4.13;1.30;;;;;;;;;;5035308;28;20013;-74
2023/10/22 11:39:41;;;;;;;3.17;1.30;;;;;;;;;;5053294;28;20404;-74
2023/10/22 11:42:07;;;;;;;4.50;1.27;;;;;;;;;;5053153;28;20045;-74
2023/10/22 11:44:34;;;;;;;5.25;1.25;;;;;;;;;;5053045;28;20017;-73
2023/10/22 11:47:02;;;;;;;5.80;1.30;;;;;;;;;;5053173;28;20427;-74
2023/10/22 11:49:28;;;;;;;3.97;1.35;;;;;;;;;;5052679;28;20028;-73
2023/10/22 11:51:53;;;;;;;4.90;1.33;;;;;;;;;;5053106;28;20023;-74
2023/10/22 11:54:19;;;;;;;3.30;1.33;;;;;;;;;;5053142;28;20013;-74
2023/10/22 11:56:45;;;;;;;4.28;1.20;;;;;;;;;;5035190;28;20167;-74
2023/10/22 11:59:10;;;;;;;4.93;1.30;;;;;;;;;;5053270;28;20053;-73
2023/10/22 12:01:35;;;;;;;4.63;1.20;;;;;;;;;;5053022;28;20754;-74
2023/10/22 12:04:00;;;;;;;2.00;0.87;;;;;;;;;;5052873;28;20028;-73
2023/10/22 12:06:25;;;;;;;4.43;1.40;;;;;;;;;;5034809;28;20468;-74
2023/10/22 12:08:51;;;;;;;3.38;1.17;;;;;;;;;;5052804;28;20309;-74
2023/10/22 12:11:16;;;;;;;7.43;1.43;;;;;;;;;;5052901;28;20017;-74
2023/10/22 12:13:41;;;;;;;3.73;1.17;;;;;;;;;;5052653;28;20017;-74
2023/10/22 12:16:06;;;;;;;4.70;1.20;;;;;;;;;;5052744;28;20040;-74
2023/10/22 12:18:31;;;;;;;4.13;1.33;;;;;;;;;;5052877;28;20066;-74
2023/10/22 12:20:57;;;;;;;3.60;1.20;;;;;;;;;;5052175;28;20392;-72
2023/10/22 12:23:22;;;;;;;3.22;1.30;;;;;;;;;;5052516;28;20735;-73
2023/10/22 12:25:47;;;;;;;4.90;1.20;;;;;;;;;;5052737;28;20531;-74
2023/10/22 12:28:12;;;;;;;5.30;1.30;;;;;;;;;;5052743;28;20342;-74
2023/10/22 12:30:38;;;;;;;3.50;1.15;;;;;;;;;;5052514;28;20021;-74
2023/10/22 12:33:04;;;;;;;5.70;1.38;;;;;;;;;;5034860;28;20490;-73
2023/10/22 12:35:29;;;;;;;6.37;1.87;;;;;;;;;;5052662;28;20021;-73
2023/10/22 12:37:55;;;;;;;4.95;1.13;;;;;;;;;;5052739;28;20267;-73
2023/10/22 12:40:20;;;;;;;3.45;1.30;;;;;;;;;;5052560;28;20024;-73
2023/10/22 12:42:45;;;;;;;3.85;1.42;;;;;;;;;;5052908;28;20025;-73
2023/10/22 12:45:11;;;;;;;5.13;1.40;;;;;;;;;;5052685;28;20025;-74
2023/10/22 12:47:36;;;;;;;3.35;1.10;;;;;;;;;;5052579;28;20361;-74
2023/10/22 12:50:04;;;;;;;4.43;1.45;;;;;;;;;;5052364;28;20392;-75
2023/10/22 12:52:29;;;;;;;3.85;1.23;;;;;;;;;;5034648;28;20040;-74
2023/10/22 12:54:54;;;;;;;3.77;1.03;;;;;;;;;;5034719;28;20159;-74
2023/10/22 12:57:19;;;;;;;2.77;1.00;;;;;;;;;;5034589;28;20610;-74
2023/10/22 12:59:44;;;;;;;3.23;1.30;;;;;;;;;;5052448;28;20259;-73
2023/10/22 13:02:10;;;;;;;4.33;1.30;;;;;;;;;;5053528;28;20024;-73
2023/10/22 13:04:35;;;;;;;7.32;1.52;;;;;;;;;;5055922;28;20028;-74
2023/10/22 13:07:00;;;;;;;4.00;1.20;;;;;;;;;;5055945;28;20080;-74
2023/10/22 13:09:25;;;;;;;4.80;1.07;;;;;;;;;;5055926;28;20045;-74
2023/10/22 13:11:50;;;;;;;6.27;1.50;;;;;;;;;;5055707;28;20681;-73
2023/10/22 13:14:19;;;;;;;3.27;1.20;;;;;;;;;;5055828;28;20252;-74
2023/10/22 13:16:44;;;;;;;4.13;1.40;;;;;;;;;;5055735;28;20131;-74
2023/10/22 13:19:09;;;;;;;4.93;1.30;;;;;;;;;;5037998;28;20032;-73
2023/10/22 13:21:35;;;;;;;6.17;1.17;;;;;;;;;;5055776;28;20025;-74
2023/10/22 13:24:02;;;;;;;5.45;1.33;;;;;;;;;;5055745;28;20020;-73
2023/10/22 13:26:28;;;;;;;3.38;1.23;;;;;;;;;;5055627;28;20035;-73
2023/10/22 13:28:53;;;;;;;2.30;0.90;;;;;;;;;;5055504;28;20033;-74
2023/10/22 13:31:18;;;;;;;4.23;1.43;;;;;;;;;;5055521;28;20266;-73
2023/10/22 13:33:43;;;;;;;3.07;1.00;;;;;;;;;;5055082;28;20256;-74
2023/10/22 13:36:08;;;;;;;7.00;1.27;;;;;;;;;;5054973;28;20044;-73
2023/10/22 13:38:33;;;;;;;6.23;1.20;;;;;;;;;;5054892;28;20017;-72
2023/10/22 13:41:02;;;;;;;2.07;1.20;;;;;;;;;;5054793;28;20263;-73
2023/10/22 13:43:27;;;;;;;5.18;2.10;;;;;;;;;;5037024;28;20417;-73
2023/10/22 13:45:53;;;;;;;4.27;1.50;;;;;;;;;;5054607;28;20029;-72
2023/10/22 13:48:18;;;;;;;4.50;1.30;;;;;;;;;;5036874;28;20283;-73
2023/10/22 13:50:43;;;;;;;3.85;1.58;;;;;;;;;;5037232;28;20174;-73
2023/10/22 13:53:09;;;;;;;8.70;1.77;;;;;;;;;;5055313;28;20071;-73
2023/10/22 13:55:34;;;;;;;3.60;1.40;;;;;;;;;;5037214;28;20321;-73
2023/10/22 13:57:59;;;;;;;4.60;1.30;;;;;;;;;;5054808;28;20013;-73
2023/10/22 14:00:24;;;;;;;5.23;0.80;;;;;;;;;;5054024;28;20472;-74
2023/10/22 14:02:49;;;;;;;4.03;1.00;;;;;;;;;;5037088;28;20021;-73
2023/10/22 14:05:15;;;;;;;4.83;1.40;;;;;;;;;;5054975;28;20105;-73
2023/10/22 14:07:40;;;;;;;3.03;1.30;;;;;;;;;;5055089;28;20024;-73
2023/10/22 14:10:06;;;;;;;5.00;1.27;;;;;;;;;;5054820;28;20284;-74
2023/10/22 14:12:31;;;;;;;5.43;1.20;;;;;;;;;;5054455;28;20029;-73
2023/10/22 14:14:57;;;;;;;4.13;0.70;;;;;;;;;;5054601;28;20393;-73
2023/10/22 14:17:22;;;;;;;5.18;0.90;;;;;;;;;;5054578;28;20259;-73
2023/10/22 14:19:51;;;;;;;5.57;1.27;;;;;;;;;;5054651;28;20028;-73
2023/10/22 14:22:16;;;;;;;7.55;1.70;;;;;;;;;;5036727;28;20021;-74
2023/10/22 14:24:41;;;;;;;13.80;2.07;;;;;;;;;;5054497;28;20096;-73
2023/10/22 14:27:06;;;;;;;5.13;1.80;;;;;;;;;;5054490;28;20024;-73
2023/10/22 14:29:31;;;;;;;5.47;1.40;;;;;;;;;;5036569;28;20432;-74
2023/10/22 14:31:56;;;;;;;5.60;1.80;;;;;;;;;;5054406;28;20028;-74
2023/10/22 14:34:22;;;;;;;5.83;1.50;;;;;;;;;;5036586;28;20533;-73